createdAt,value
2022-12-31T00:01:56.674Z,0.30
2022-12-31T00:06:58.183Z,0.20
2022-12-31T00:11:59.611Z,0.28
2022-12-31T00:17:01.048Z,0.40
2022-12-31T00:22:02.493Z,0.30
2022-12-31T00:27:03.952Z,0.43
2022-12-31T00:32:05.795Z,0.35
2022-12-31T00:37:07.223Z,0.35
2022-12-31T00:42:08.645Z,0.40
2022-12-31T00:47:10.067Z,0.40
2022-12-31T00:52:13.833Z,0.40
2022-12-31T00:57:15.262Z,0.30
2022-12-31T01:02:16.857Z,0.40
2022-12-31T01:07:18.436Z,0.38
2022-12-31T01:12:19.878Z,0.20
2022-12-31T01:17:21.480Z,0.70
2022-12-31T01:22:22.852Z,0.40
2022-12-31T01:27:24.291Z,0.38
2022-12-31T01:32:25.718Z,0.40
2022-12-31T01:37:28.018Z,0.50
2022-12-31T01:42:29.469Z,0.32
2022-12-31T01:47:37.420Z,0.40
2022-12-31T01:52:42.516Z,0.30
2022-12-31T01:57:47.574Z,0.38
2022-12-31T02:02:49.703Z,0.60
2022-12-31T02:07:53.320Z,0.40
2022-12-31T02:12:55.095Z,0.20
2022-12-31T02:18:01.252Z,0.45
2022-12-31T02:23:27.149Z,0.30
2022-12-31T02:28:31.698Z,0.50
2022-12-31T02:33:38.831Z,0.50
2022-12-31T02:38:44.615Z,0.60
2022-12-31T02:43:47.224Z,0.55
2022-12-31T02:48:55.911Z,0.40
2022-12-31T02:54:16.750Z,0.40
2022-12-31T02:59:59.474Z,0.55
2022-12-31T03:05:02.352Z,0.30
2022-12-31T03:10:04.024Z,0.30
2022-12-31T03:15:07.009Z,0.43
2022-12-31T03:20:27.601Z,0.68
2022-12-31T03:25:40.851Z,0.22
2022-12-31T03:30:44.981Z,0.30
2022-12-31T03:35:48.422Z,0.30
2022-12-31T03:40:52.326Z,0.43
2022-12-31T03:45:55.062Z,0.22
2022-12-31T03:50:56.461Z,0.20
2022-12-31T03:55:57.857Z,0.20
2022-12-31T04:00:59.401Z,0.35
2022-12-31T04:06:00.902Z,0.40
2022-12-31T04:11:02.318Z,0.45
2022-12-31T04:16:03.852Z,0.30
2022-12-31T04:21:05.879Z,0.30
2022-12-31T04:26:07.531Z,0.30
2022-12-31T04:31:09.089Z,0.77
2022-12-31T04:36:10.812Z,0.60
2022-12-31T04:41:18.029Z,0.40
2022-12-31T04:46:22.470Z,0.20
2022-12-31T04:51:24.738Z,0.30
2022-12-31T04:56:27.439Z,0.50
2022-12-31T05:01:28.913Z,0.20
2022-12-31T05:06:30.425Z,0.30
2022-12-31T05:11:31.930Z,0.25
2022-12-31T05:16:33.402Z,0.20
2022-12-31T05:21:35.274Z,0.40
2022-12-31T05:26:36.737Z,0.30
2022-12-31T05:31:38.151Z,0.30
2022-12-31T05:36:39.691Z,0.55
2022-12-31T05:41:41.071Z,0.22
2022-12-31T05:46:42.531Z,0.30
2022-12-31T05:51:44.206Z,0.80
2022-12-31T05:56:45.625Z,0.20
2022-12-31T06:01:47.177Z,0.30
2022-12-31T06:06:49.081Z,0.30
2022-12-31T06:11:50.533Z,0.20
2022-12-31T06:16:51.940Z,0.30
2022-12-31T06:21:53.355Z,0.40
2022-12-31T06:26:54.778Z,0.38
2022-12-31T06:31:56.256Z,0.52
2022-12-31T06:36:59.145Z,0.30
2022-12-31T06:42:00.670Z,0.38
2022-12-31T06:47:02.239Z,0.30
2022-12-31T06:52:03.756Z,0.47
2022-12-31T06:57:05.584Z,0.25
2022-12-31T07:02:28.880Z,0.40
2022-12-31T07:07:53.640Z,0.40
2022-12-31T07:13:07.667Z,0.50
2022-12-31T07:18:28.781Z,0.30
2022-12-31T07:23:30.509Z,0.30
2022-12-31T07:28:38.619Z,0.45
2022-12-31T07:33:47.776Z,0.40
2022-12-31T07:39:08.645Z,0.50
2022-12-31T07:44:49.106Z,0.50
2022-12-31T07:54:52.190Z,0.40
2022-12-31T08:00:05.436Z,0.32
2022-12-31T08:05:32.067Z,0.30
2022-12-31T08:10:55.346Z,0.40
2022-12-31T08:15:57.053Z,0.40
2022-12-31T08:21:04.775Z,0.30
2022-12-31T08:26:14.849Z,0.32
2022-12-31T08:31:21.211Z,0.30
2022-12-31T08:36:45.348Z,0.35
2022-12-31T08:41:51.148Z,0.50
2022-12-31T08:47:34.160Z,0.50
2022-12-31T08:52:38.768Z,0.40
2022-12-31T08:58:04.993Z,0.50
2022-12-31T09:03:31.099Z,0.43
2022-12-31T09:08:56.143Z,0.38
2022-12-31T09:14:14.363Z,0.20
2022-12-31T09:19:15.790Z,0.40
2022-12-31T09:24:17.533Z,0.40
2022-12-31T09:29:38.577Z,0.40
2022-12-31T09:35:04.163Z,0.30
2022-12-31T09:40:46.069Z,0.20
2022-12-31T09:46:09.751Z,0.32
2022-12-31T09:51:21.673Z,0.52
2022-12-31T09:56:36.395Z,0.40
2022-12-31T10:02:05.520Z,0.30
2022-12-31T10:07:29.219Z,0.30
2022-12-31T10:12:52.568Z,0.28
2022-12-31T10:18:35.339Z,0.47
2022-12-31T10:24:02.912Z,0.30
2022-12-31T10:29:29.421Z,0.30
2022-12-31T10:34:52.759Z,0.30
2022-12-31T10:40:09.567Z,0.40
2022-12-31T10:45:26.326Z,0.30
2022-12-31T10:51:02.864Z,0.65
2022-12-31T10:56:45.171Z,0.30
2022-12-31T11:02:19.026Z,0.40
2022-12-31T11:07:50.161Z,0.20
2022-12-31T11:13:06.710Z,0.20
2022-12-31T11:18:36.039Z,0.47
2022-12-31T11:24:01.447Z,0.20
2022-12-31T11:29:23.403Z,0.22
2022-12-31T11:34:51.793Z,0.70
2022-12-31T11:40:21.593Z,0.40
2022-12-31T11:45:53.918Z,0.30
2022-12-31T11:51:13.195Z,0.47
2022-12-31T11:56:20.700Z,0.27
2022-12-31T12:01:30.691Z,0.30
2022-12-31T12:06:33.181Z,0.30
2022-12-31T12:11:39.272Z,0.30
2022-12-31T12:16:40.879Z,0.82
2022-12-31T12:21:49.328Z,0.20
2022-12-31T12:26:50.892Z,0.50
2022-12-31T12:32:07.481Z,0.22
2022-12-31T12:37:24.072Z,0.30
2022-12-31T12:42:25.563Z,0.17
2022-12-31T12:47:27.197Z,0.20
2022-12-31T12:53:01.007Z,0.25
2022-12-31T12:58:19.469Z,0.22
2022-12-31T13:09:29.996Z,0.20
2022-12-31T13:14:52.340Z,0.30
2022-12-31T13:19:57.899Z,0.40
2022-12-31T13:25:07.841Z,0.63
2022-12-31T13:30:35.209Z,0.22
2022-12-31T13:35:44.711Z,0.47
2022-12-31T13:40:48.349Z,0.60
2022-12-31T13:46:09.473Z,0.38
2022-12-31T13:51:21.114Z,0.20
2022-12-31T13:56:27.290Z,0.50
2022-12-31T14:01:36.887Z,0.20
2022-12-31T14:06:45.899Z,0.60
2022-12-31T14:12:04.688Z,0.40
2022-12-31T14:17:14.869Z,0.50
2022-12-31T14:22:54.873Z,0.20
2022-12-31T14:27:57.513Z,0.20
2022-12-31T14:33:15.950Z,0.30
2022-12-31T14:38:33.221Z,0.30
2022-12-31T14:43:53.198Z,0.47
2022-12-31T14:49:00.536Z,0.30
2022-12-31T14:54:02.161Z,0.40
2022-12-31T14:59:04.008Z,0.30
2022-12-31T15:04:14.288Z,0.30
2022-12-31T15:15:00.421Z,0.30
2022-12-31T15:20:14.994Z,0.50
2022-12-31T15:25:21.597Z,0.50
2022-12-31T15:30:38.451Z,4.93
2022-12-31T15:35:52.791Z,7.68
2022-12-31T15:40:54.364Z,22.75
2022-12-31T15:45:57.683Z,3.80
2022-12-31T15:51:01.394Z,1.77
2022-12-31T15:56:03.619Z,0.88
2022-12-31T16:01:42.029Z,0.70
2022-12-31T16:06:50.431Z,0.95
2022-12-31T16:11:54.407Z,1.15
2022-12-31T16:16:59.100Z,0.55
2022-12-31T16:22:28.835Z,0.60
2022-12-31T16:27:31.080Z,0.47
2022-12-31T16:32:38.331Z,0.35
2022-12-31T16:37:39.865Z,1.17
2022-12-31T16:42:44.429Z,0.90
2022-12-31T16:47:46.242Z,0.93
2022-12-31T16:52:54.257Z,0.65
2022-12-31T16:58:01.712Z,1.33
2022-12-31T17:03:20.008Z,0.75
2022-12-31T17:08:28.193Z,0.95
2022-12-31T17:13:34.002Z,1.60
2022-12-31T17:18:38.521Z,1.27
2022-12-31T17:23:41.449Z,1.45
2022-12-31T17:28:48.773Z,1.10
2022-12-31T17:33:54.041Z,1.13
2022-12-31T17:38:55.598Z,0.75
2022-12-31T17:43:57.798Z,0.68
2022-12-31T17:49:02.550Z,0.90
2022-12-31T17:54:13.555Z,2.90
2022-12-31T17:59:22.139Z,4.85
2022-12-31T18:04:23.606Z,11.30
2022-12-31T18:09:25.089Z,4.25
2022-12-31T18:14:26.513Z,8.05
2022-12-31T18:20:02.722Z,5.28
2022-12-31T18:24:52.198Z,2.53
2022-12-31T18:29:55.742Z,2.67
2022-12-31T18:35:03.192Z,2.10
2022-12-31T18:40:05.158Z,3.78
2022-12-31T18:45:16.634Z,1.23
2022-12-31T18:50:18.191Z,2.40
2022-12-31T18:55:26.962Z,2.80
2022-12-31T19:00:28.376Z,1.30
2022-12-31T19:05:32.118Z,2.60
2022-12-31T19:10:33.980Z,2.17
2022-12-31T19:15:43.123Z,7.03
2022-12-31T19:20:44.961Z,1.80
2022-12-31T19:25:47.717Z,1.15
2022-12-31T19:30:49.599Z,1.30
2022-12-31T19:35:51.071Z,1.33
2022-12-31T19:40:53.567Z,1.50
2022-12-31T19:45:55.073Z,0.90
2022-12-31T19:50:56.648Z,1.00
2022-12-31T19:55:58.056Z,1.02
2022-12-31T20:01:02.845Z,2.95
2022-12-31T20:06:10.845Z,4.13
2022-12-31T20:11:20.394Z,1.65
2022-12-31T20:16:26.576Z,2.15
2022-12-31T20:21:29.411Z,2.63
2022-12-31T20:26:30.867Z,2.20
2022-12-31T20:31:32.423Z,2.33
2022-12-31T20:36:33.830Z,2.60
2022-12-31T20:41:35.294Z,6.78
2022-12-31T20:46:36.956Z,2.75
2022-12-31T20:51:38.375Z,5.20
2022-12-31T20:56:41.536Z,2.92
2022-12-31T21:02:19.276Z,3.80
2022-12-31T21:07:04.497Z,3.38
2022-12-31T21:12:24.775Z,3.00
2022-12-31T21:17:26.209Z,3.38
2022-12-31T21:22:27.700Z,1.60
2022-12-31T21:27:29.764Z,1.88
2022-12-31T21:32:31.162Z,2.05
2022-12-31T21:37:58.788Z,1.15
2022-12-31T21:42:54.036Z,2.65
2022-12-31T21:48:17.831Z,1.55
2022-12-31T21:53:26.168Z,1.30
2022-12-31T21:58:29.579Z,1.92
2022-12-31T22:03:31.850Z,1.00
2022-12-31T22:08:33.403Z,3.63
2022-12-31T22:13:36.161Z,2.40
2022-12-31T22:18:40.543Z,2.38
2022-12-31T22:23:42.841Z,3.88
2022-12-31T22:28:46.088Z,2.13
2022-12-31T22:33:48.052Z,1.50
2022-12-31T22:38:50.958Z,1.65
2022-12-31T22:44:02.619Z,2.28
2022-12-31T22:49:05.182Z,2.22
2022-12-31T22:54:06.636Z,1.70
2022-12-31T22:59:08.293Z,1.80
2022-12-31T23:04:09.895Z,14.63
2022-12-31T23:09:31.785Z,85.63
2022-12-31T23:14:52.324Z,194.82
2022-12-31T23:25:14.055Z,51.95
2022-12-31T23:30:15.606Z,21.48
2022-12-31T23:35:17.149Z,34.78
2022-12-31T23:40:21.536Z,28.58
2022-12-31T23:45:25.874Z,25.67
2022-12-31T23:50:31.193Z,44.40
2022-12-31T23:55:32.937Z,17.90
